Time;durP1;ratioP1;P1;durP2;ratioP2;P2;SDS_P1;SDS_P2;PMS_P1;PMS_P2;Temp;Humidity;BMP_temperature;BMP_pressure;BME280_temperature;BME280_humidity;BME280_pressure;Samples;Min_cycle;Max_cycle;Signal;HPM_P1;HPM_P2
2022/02/03 00:01:19;;;;;;;5.80;3.20;;;5.40;99.90;;;;;;6277511;22;20000;-87
2022/02/03 00:03:55;;;;;;;5.80;3.00;;;5.30;99.90;;;;;;6275620;22;20086;-86
2022/02/03 00:06:34;;;;;;;5.80;3.00;;;5.30;99.90;;;;;;6274754;22;19999;-86
2022/02/03 00:25:37;;;;;;;9.50;3.53;;;5.40;99.90;;;;;;6277307;22;20007;-87
2022/02/03 00:38:23;;;;;;;7.70;3.43;;;5.30;99.90;;;;;;6225520;23;20012;-87
2022/02/03 00:49:14;;;;;;;5.40;3.00;;;5.40;99.90;;;;;;6215280;23;20055;-88
2022/02/03 00:51:44;;;;;;;5.60;3.10;;;5.40;99.90;;;;;;6213532;23;20015;-87
2022/02/03 00:54:24;;;;;;;8.20;4.07;;;5.40;99.90;;;;;;6188556;23;20005;-88
2022/02/03 00:56:54;;;;;;;6.23;3.37;;;5.30;99.90;;;;;;6188787;23;20125;-87
2022/02/03 00:59:38;;;;;;;6.60;3.33;;;5.40;99.90;;;;;;6188233;23;20028;-88
2022/02/03 01:02:12;;;;;;;8.80;3.97;;;5.40;99.90;;;;;;6188914;23;20032;-87
2022/02/03 01:04:40;;;;;;;8.10;3.43;;;5.40;99.90;;;;;;6189271;23;20011;-87
2022/02/03 01:07:15;;;;;;;6.97;3.23;;;5.40;99.90;;;;;;6214301;23;20012;-87
2022/02/03 01:09:54;;;;;;;8.33;3.33;;;5.40;99.90;;;;;;6188255;23;20009;-87
2022/02/03 01:12:42;;;;;;;7.63;3.57;;;5.50;99.90;;;;;;6215344;23;20020;-87
2022/02/03 01:15:50;;;;;;;7.43;3.83;;;5.50;99.90;;;;;;6188627;23;20021;-87
2022/02/03 01:34:53;;;;;;;6.37;3.33;;;5.50;99.90;;;;;;6225588;23;20031;-88
2022/02/03 01:45:27;;;;;;;;;;;5.60;99.90;;;;;;6248272;22;20007;-88
2022/02/03 01:48:08;;;;;;;7.60;2.80;;;5.60;99.90;;;;;;6244632;22;19974;-88
2022/02/03 01:53:21;;;;;;;8.33;3.67;;;5.60;99.90;;;;;;6245078;23;20090;-88
2022/02/03 01:55:53;;;;;;;7.17;3.43;;;5.60;99.90;;;;;;6268813;22;20004;-87
2022/02/03 01:58:27;;;;;;;;;;;5.60;99.90;;;;;;6270478;22;20004;-88
2022/02/03 02:01:02;;;;;;;8.23;3.70;;;5.60;99.90;;;;;;6244924;23;19943;-87
2022/02/03 02:03:43;;;;;;;7.00;3.27;;;5.60;99.90;;;;;;6269442;22;20000;-87
2022/02/03 02:06:47;;;;;;;7.23;3.60;;;5.60;99.90;;;;;;6269393;22;20399;-88
2022/02/03 02:09:44;;;;;;;7.13;3.40;;;5.50;99.90;;;;;;6244860;22;19996;-88
2022/02/03 02:12:37;;;;;;;6.67;3.07;;;5.50;99.90;;;;;;6268927;22;20023;-88
2022/02/03 02:15:38;;;;;;;6.97;3.30;;;5.50;99.90;;;;;;6244875;23;20068;-88
2022/02/03 02:38:13;;;;;;;7.07;2.97;;;5.50;99.90;;;;;;6244998;23;20015;-88
2022/02/03 02:44:03;;;;;;;6.53;3.07;;;5.50;99.90;;;;;;6254345;23;20054;-87
2022/02/03 02:46:43;;;;;;;7.27;3.00;;;5.50;99.90;;;;;;6217647;23;20004;-87
2022/02/03 02:49:46;;;;;;;5.93;3.00;;;5.50;99.90;;;;;;6217621;23;20024;-87
2022/02/03 02:52:24;;;;;;;7.80;3.20;;;5.50;99.90;;;;;;6218681;23;20066;-87
2022/02/03 02:58:00;;;;;;;7.63;3.13;;;5.40;99.90;;;;;;6245432;23;20004;-87
2022/02/03 03:29:12;;;;;;;6.30;2.97;;;5.50;99.90;;;;;;6243889;23;20018;-87
2022/02/03 03:34:29;;;;;;;5.47;2.47;;;5.50;99.90;;;;;;6244761;23;20062;-87
2022/02/03 03:36:58;;;;;;;6.13;2.80;;;5.60;99.90;;;;;;6218711;23;20088;-87
2022/02/03 03:39:29;;;;;;;6.67;3.27;;;5.50;99.90;;;;;;6213620;23;20001;-88
2022/02/03 03:42:00;;;;;;;8.13;3.20;;;5.50;99.90;;;;;;6187252;23;20023;-87
2022/02/03 03:44:29;;;;;;;5.80;2.57;;;5.50;99.90;;;;;;6214417;23;19996;-87
2022/02/03 03:47:01;;;;;;;6.07;2.83;;;5.50;99.90;;;;;;6214144;23;20059;-87
2022/02/03 03:49:44;;;;;;;8.85;3.05;;;5.50;99.90;;;;;;6185017;23;20063;-88
2022/02/03 03:52:28;;;;;;;7.53;3.07;;;5.50;99.90;;;;;;6186972;23;20008;-87
2022/02/03 03:55:25;;;;;;;6.00;2.80;;;5.50;99.90;;;;;;6186277;23;20012;-87
2022/02/03 04:33:49;;;;;;;4.07;2.20;;;5.50;99.90;;;;;;6183553;23;20395;-88
2022/02/03 04:39:43;;;;;;;7.30;2.83;;;5.50;99.90;;;;;;6215386;23;20012;-87
2022/02/03 04:42:57;;;;;;;5.90;2.53;;;5.50;99.90;;;;;;6214905;23;20008;-87
2022/02/03 05:01:54;;;;;;;5.80;2.30;;;5.40;99.90;;;;;;6123609;23;20120;-89
2022/02/03 05:05:17;;;;;;;6.63;2.60;;;5.30;99.90;;;;;;6186398;23;20458;-88
2022/02/03 05:17:12;;;;;;;5.70;3.00;;;5.30;99.90;;;;;;6214634;23;20094;-88
2022/02/03 05:20:27;;;;;;;4.75;2.55;;;5.30;99.90;;;;;;6188666;23;20013;-89
2022/02/03 05:26:27;;;;;;;6.10;2.90;;;5.30;99.90;;;;;;6214355;23;20016;-89
2022/02/03 05:47:37;;;;;;;5.80;2.77;;;5.10;99.90;;;;;;6214971;23;20013;-88
2022/02/03 06:04:36;;;;;;;6.07;2.93;;;5.00;99.90;;;;;;6221586;23;20008;-88
2022/02/03 06:15:12;;;;;;;5.47;2.40;;;5.00;99.90;;;;;;6218002;23;20018;-88
2022/02/03 06:24:00;;;;;;;4.87;2.27;;;4.90;99.90;;;;;;6223065;23;20004;-88
2022/02/03 06:29:19;;;;;;;7.23;3.10;;;4.90;99.90;;;;;;6214429;23;20016;-88
2022/02/03 06:31:48;;;;;;;5.20;2.53;;;4.90;99.90;;;;;;6187694;23;20012;-89
2022/02/03 06:34:28;;;;;;;9.70;2.80;;;4.90;99.90;;;;;;6188145;23;20415;-88
2022/02/03 06:37:29;;;;;;;7.47;2.97;;;4.90;99.90;;;;;;6285771;22;20449;-86
2022/02/03 06:40:00;;;;;;;5.77;2.47;;;4.90;99.90;;;;;;6271486;22;20074;-86
2022/02/03 06:46:17;;;;;;;5.57;2.67;;;5.00;99.90;;;;;;6293022;22;20221;-87
2022/02/03 06:58:41;;;;;;;;;;;;;;;;;;;;;
2022/02/03 07:05:11;;;;;;;6.37;3.23;;;5.10;99.90;;;;;;6188317;23;19997;-87
2022/02/03 07:08:45;;;;;;;7.13;3.03;;;5.00;99.90;;;;;;6310100;22;19999;-87
2022/02/03 07:11:18;;;;;;;7.35;3.40;;;5.20;99.90;;;;;;6218626;23;20009;-87
2022/02/03 07:14:24;;;;;;;5.50;2.50;;;5.20;99.90;;;;;;6222440;22;20014;-89
2022/02/03 07:17:18;;;;;;;8.17;2.63;;;5.20;99.90;;;;;;6287754;22;20037;-89
2022/02/03 07:20:28;;;;;;;5.83;3.13;;;5.20;99.90;;;;;;6311339;22;20010;-91
2022/02/03 07:23:01;;;;;;;5.73;2.83;;;5.30;99.90;;;;;;6288093;22;20071;-92
2022/02/03 07:25:38;;;;;;;;;;;5.40;99.90;;;;;;6284050;22;20003;-90
2022/02/03 07:28:29;;;;;;;5.87;2.77;;;5.40;99.90;;;;;;6313885;22;19906;-90
2022/02/03 07:31:31;;;;;;;;;;;;;;;;;;;;;
2022/02/03 07:34:30;;;;;;;4.30;1.92;;;5.40;99.90;;;;;;6322318;22;20003;-91
2022/02/03 07:37:33;;;;;;;5.77;2.83;;;5.40;99.90;;;;;;6297584;22;20023;-90
2022/02/03 07:40:15;;;;;;;;;;;;;;;;;;;;;
2022/02/03 07:43:21;;;;;;;6.13;2.65;;;5.60;99.90;;;;;;6316118;22;19922;-90
2022/02/03 07:45:50;;;;;;;6.03;2.57;;;5.60;99.90;;;;;;6285249;22;20086;-90
2022/02/03 07:48:42;;;;;;;6.23;2.97;;;5.60;99.90;;;;;;6281615;22;20220;-90
2022/02/03 07:53:57;;;;;;;6.67;2.90;;;5.70;99.90;;;;;;6297143;22;20010;-88
2022/02/03 07:56:39;;;;;;;5.43;2.60;;;5.70;99.90;;;;;;6294949;22;19999;-87
2022/02/03 07:59:15;;;;;;;6.00;2.60;;;5.70;99.90;;;;;;6291904;22;20426;-88
2022/02/03 08:01:41;;;;;;;5.80;2.77;;;5.80;99.90;;;;;;6314156;22;20079;-87
2022/02/03 08:04:08;;;;;;;6.40;2.80;;;5.70;99.90;;;;;;6309528;22;20023;-87
2022/02/03 08:06:39;;;;;;;6.80;2.97;;;5.80;99.90;;;;;;6307730;22;20003;-87
2022/02/03 08:09:14;;;;;;;5.77;2.67;;;5.80;99.90;;;;;;6281146;22;20023;-87
2022/02/03 08:11:44;;;;;;;6.83;2.77;;;5.80;99.90;;;;;;6281825;22;20503;-87
2022/02/03 08:14:18;;;;;;;5.10;2.47;;;5.90;99.90;;;;;;6311265;22;20003;-87
2022/02/03 08:17:05;;;;;;;6.10;3.07;;;5.90;99.90;;;;;;6293750;22;20007;-87
2022/02/03 08:22:21;;;;;;;7.53;3.10;;;5.90;99.90;;;;;;6324984;22;20010;-88
2022/02/03 08:24:53;;;;;;;7.33;3.13;;;5.90;99.90;;;;;;6295665;22;20003;-87
2022/02/03 08:32:54;;;;;;;6.27;2.97;;;5.90;99.90;;;;;;6319760;22;20519;-87
2022/02/03 08:35:35;;;;;;;5.83;2.70;;;6.00;99.90;;;;;;6307105;22;20333;-88
2022/02/03 08:43:11;;;;;;;5.13;2.65;;;6.20;99.90;;;;;;6318794;22;20427;-90
2022/02/03 08:45:37;;;;;;;6.00;2.77;;;6.30;99.90;;;;;;6281442;22;20074;-90
2022/02/03 08:48:03;;;;;;;6.03;3.30;;;6.30;99.90;;;;;;6281472;22;20057;-90
2022/02/03 08:50:29;;;;;;;5.13;2.70;;;6.30;99.90;;;;;;6280658;22;20322;-90
2022/02/03 08:55:34;;;;;;;5.33;2.63;;;6.40;99.90;;;;;;6308503;22;20007;-89
2022/02/03 10:00:04;;;;;;;1.53;0.70;;;7.10;99.90;;;;;;6276670;22;20004;-90
2022/02/03 10:02:32;;;;;;;1.73;0.57;;;7.10;99.90;;;;;;6276638;22;20311;-89
2022/02/03 10:05:12;;;;;;;1.27;0.60;;;7.30;99.90;;;;;;6276089;22;20007;-89
2022/02/03 10:07:39;;;;;;;1.93;0.70;;;7.20;99.90;;;;;;6246963;22;20014;-89
2022/02/03 10:10:11;;;;;;;1.70;0.50;;;7.30;99.90;;;;;;6250236;22;20000;-89
2022/02/03 10:12:42;;;;;;;1.88;0.70;;;7.30;99.90;;;;;;6250068;22;20035;-90
2022/02/03 10:15:11;;;;;;;3.00;0.70;;;7.30;99.90;;;;;;6276102;22;20008;-89
2022/02/03 10:17:41;;;;;;;2.33;0.70;;;7.40;99.90;;;;;;6249687;22;20007;-89
2022/02/03 10:20:12;;;;;;;1.70;0.50;;;7.50;99.90;;;;;;6274832;22;20023;-89
2022/02/03 10:22:47;;;;;;;2.23;0.63;;;7.50;99.90;;;;;;6277257;22;20063;-89
2022/02/03 10:25:17;;;;;;;1.13;0.53;;;7.60;99.90;;;;;;6275630;22;20414;-89
2022/02/03 10:27:46;;;;;;;1.40;0.53;;;7.60;99.90;;;;;;6250245;22;20082;-89
2022/02/03 10:30:25;;;;;;;1.23;0.50;;;7.70;99.90;;;;;;6249490;22;20011;-90
2022/02/03 10:32:52;;;;;;;1.77;0.70;;;7.70;99.90;;;;;;6250343;22;20389;-90
2022/02/03 10:35:29;;;;;;;1.57;0.50;;;7.70;99.90;;;;;;6250176;22;20083;-89
2022/02/03 10:43:58;;;;;;;1.57;0.53;;;7.80;99.90;;;;;;6290133;22;20014;-90
2022/02/03 10:49:32;;;;;;;1.33;0.50;;;8.00;99.90;;;;;;6309580;22;20014;-90
2022/02/03 10:55:20;;;;;;;0.60;0.20;;;8.20;99.90;;;;;;6297667;22;20026;-88
2022/02/03 11:10:36;;;;;;;1.93;0.50;;;8.40;99.90;;;;;;6289023;22;20107;-88
2022/02/03 11:13:02;;;;;;;2.80;0.50;;;8.60;99.90;;;;;;6277656;22;20078;-89
2022/02/03 11:15:31;;;;;;;0.93;0.40;;;8.70;99.90;;;;;;6274864;22;20015;-88
2022/02/03 11:17:59;;;;;;;0.83;0.40;;;8.50;99.90;;;;;;6277034;22;20492;-87
2022/02/03 11:20:28;;;;;;;1.43;0.53;;;8.60;99.90;;;;;;6274008;22;20446;-88
2022/02/03 11:23:12;;;;;;;1.23;0.50;;;8.60;99.90;;;;;;6277254;22;20323;-88
2022/02/03 11:28:24;;;;;;;2.17;1.00;;;8.50;99.90;;;;;;6294178;22;20345;-88
2022/02/03 11:33:52;;;;;;;3.07;0.97;;;8.60;99.90;;;;;;6280702;22;20007;-89
2022/02/03 11:37:01;;;;;;;1.33;0.70;;;8.60;99.90;;;;;;6278896;22;20015;-88
2022/02/03 11:42:22;;;;;;;0.60;0.30;;;8.70;99.90;;;;;;6282091;22;20011;-89
2022/02/03 12:14:48;;;;;;;2.00;0.90;;;9.00;99.90;;;;;;6280737;22;20072;-88
2022/02/03 12:17:42;;;;;;;1.33;0.60;;;9.10;99.90;;;;;;6278767;22;20003;-89
2022/02/03 12:20:45;;;;;;;2.80;0.80;;;9.10;99.90;;;;;;6277811;22;20006;-88
2022/02/03 12:23:21;;;;;;;1.30;0.60;;;9.20;99.90;;;;;;6276803;22;19999;-89
2022/02/03 12:25:55;;;;;;;2.53;0.60;;;9.20;99.90;;;;;;6253669;22;20100;-89
2022/02/03 12:31:14;;;;;;;0.73;0.40;;;9.30;99.90;;;;;;6282332;22;20031;-89
2022/02/03 12:45:12;;;;;;;;;;;;;;;;;;;;;
2022/02/03 12:57:10;;;;;;;1.13;0.40;;;9.40;99.90;;;;;;6217330;23;20220;-88
2022/02/03 12:59:36;;;;;;;0.77;0.40;;;9.60;99.90;;;;;;6200294;23;20007;-88
2022/02/03 13:02:12;;;;;;;0.57;0.30;;;9.60;99.90;;;;;;6193484;23;20362;-89
2022/02/03 13:04:38;;;;;;;1.90;0.50;;;9.60;99.90;;;;;;6195059;23;20027;-89
2022/02/03 13:07:09;;;;;;;1.63;0.47;;;9.50;99.90;;;;;;6195325;23;20004;-88
2022/02/03 13:09:51;;;;;;;0.60;0.30;;;9.40;99.90;;;;;;6195732;23;20001;-89
2022/02/03 13:12:21;;;;;;;;;;;9.50;99.90;;;;;;6225562;23;20000;-89
2022/02/03 13:14:56;;;;;;;1.33;0.55;;;9.50;99.90;;;;;;6226954;23;19914;-87
2022/02/03 13:30:18;;;;;;;0.93;0.47;;;9.40;99.90;;;;;;5956249;24;20105;-87
2022/02/03 13:40:01;;;;;;;;;;;;;;;;;;;;;
2022/02/03 13:43:32;;;;;;;1.07;0.50;;;9.30;99.90;;;;;;5927790;24;20097;-87
2022/02/03 14:20:35;;;;;;;1.00;0.40;;;9.60;99.90;;;;;;6181890;23;20047;-88
2022/02/03 14:30:41;;;;;;;;;;;;;;;;;;;;;
2022/02/03 14:42:40;;;;;;;1.13;0.47;;;9.20;99.90;;;;;;6225304;22;20116;-84
2022/02/03 14:45:18;;;;;;;2.88;0.47;;;9.20;99.90;;;;;;6252923;22;20030;-83
2022/02/03 14:47:49;;;;;;;2.30;0.47;;;9.20;99.90;;;;;;6224217;23;20005;-85
2022/02/03 14:50:21;;;;;;;0.93;0.40;;;9.20;99.90;;;;;;6222402;23;20007;-85
2022/02/03 15:00:45;;;;;;;1.30;0.40;;;9.00;99.90;;;;;;6247681;23;20442;-84
2022/02/03 15:03:19;;;;;;;0.70;0.30;;;9.00;99.90;;;;;;6220760;23;20004;-85
2022/02/03 15:05:46;;;;;;;0.50;0.20;;;9.00;99.90;;;;;;6247115;22;19996;-84
2022/02/03 15:11:15;;;;;;;1.73;0.60;;;8.90;99.90;;;;;;6245001;23;20094;-85
2022/02/03 15:13:56;;;;;;;0.90;0.40;;;8.90;99.90;;;;;;6221539;23;20004;-86
2022/02/03 15:16:22;;;;;;;1.80;0.50;;;8.80;99.90;;;;;;6221497;23;20004;-85
2022/02/03 15:18:48;;;;;;;1.07;0.37;;;8.90;99.90;;;;;;6248038;23;20007;-85
2022/02/03 15:21:14;;;;;;;1.17;0.50;;;8.80;99.90;;;;;;6221335;23;20000;-87
2022/02/03 15:23:42;;;;;;;1.67;0.40;;;8.80;99.90;;;;;;6223621;23;20004;-87
2022/02/03 15:26:39;;;;;;;1.50;0.60;;;8.70;99.90;;;;;;6223033;23;20011;-87
2022/02/03 15:29:30;;;;;;;1.50;0.30;;;8.70;99.90;;;;;;6246921;23;20067;-86
2022/02/03 15:32:11;;;;;;;1.90;0.37;;;8.60;99.90;;;;;;6247558;23;20004;-86
2022/02/03 15:34:53;;;;;;;1.03;0.40;;;8.60;99.90;;;;;;6224999;23;20008;-87
2022/02/03 15:37:22;;;;;;;1.52;0.60;;;8.60;99.90;;;;;;6224548;23;20008;-86
2022/02/03 15:39:59;;;;;;;1.07;0.50;;;8.60;99.90;;;;;;6202429;23;20012;-86
2022/02/03 15:42:39;;;;;;;1.80;0.43;;;8.50;99.90;;;;;;6228045;23;20035;-86
2022/02/03 15:45:06;;;;;;;2.00;0.83;;;8.50;99.90;;;;;;6228505;23;19996;-86
2022/02/03 16:17:45;;;;;;;0.97;0.33;;;8.00;99.90;;;;;;6323079;22;20007;-87
2022/02/03 16:20:19;;;;;;;3.73;0.70;;;7.90;99.90;;;;;;6284315;22;19999;-88
2022/02/03 16:22:55;;;;;;;1.70;0.67;;;8.00;99.90;;;;;;6314049;22;20003;-89
2022/02/03 16:52:54;;;;;;;1.17;0.50;;;7.70;99.90;;;;;;6310031;22;20113;-88
2022/02/03 16:55:24;;;;;;;1.47;0.70;;;7.60;99.90;;;;;;6306613;22;20033;-87
2022/02/03 16:57:57;;;;;;;3.87;1.20;;;7.60;99.90;;;;;;6312247;22;20277;-87
2022/02/03 17:00:25;;;;;;;4.37;1.37;;;7.60;99.90;;;;;;6311570;22;20011;-88
2022/02/03 17:02:51;;;;;;;2.10;0.73;;;7.60;99.90;;;;;;6309728;22;20007;-87
2022/02/03 17:05:17;;;;;;;4.93;0.70;;;7.50;99.90;;;;;;6283593;22;20010;-87
2022/02/03 17:07:43;;;;;;;4.37;1.37;;;7.50;99.90;;;;;;6282909;22;20038;-88
2022/02/03 17:10:11;;;;;;;7.40;2.60;;;7.50;99.90;;;;;;6307480;22;20014;-87
2022/02/03 17:12:37;;;;;;;20.37;9.90;;;7.40;99.90;;;;;;6283380;22;20501;-88
2022/02/03 17:15:03;;;;;;;12.63;5.47;;;7.40;99.90;;;;;;6307434;22;20086;-88
2022/02/03 17:17:30;;;;;;;15.07;7.63;;;7.40;99.90;;;;;;6309723;22;20068;-88
2022/02/03 17:19:56;;;;;;;7.73;3.70;;;7.40;99.90;;;;;;6311310;22;20000;-87
2022/02/03 17:22:34;;;;;;;6.57;2.90;;;7.40;99.90;;;;;;6283195;22;20101;-87
2022/02/03 17:30:28;;;;;;;5.17;2.57;;;7.30;99.90;;;;;;6309943;22;20014;-88
2022/02/03 18:08:46;;;;;;;6.18;3.13;;;7.10;99.90;;;;;;6246812;23;20461;-87
2022/02/03 18:51:47;;;;;;;3.73;1.80;;;6.60;99.90;;;;;;6256672;22;20024;-86
2022/02/03 18:54:28;;;;;;;3.50;1.70;;;6.60;99.90;;;;;;6275384;22;19999;-87
2022/02/03 19:57:40;;;;;;;6.17;2.47;;;5.90;99.90;;;;;;6279014;22;20015;-88
2022/02/03 20:05:19;;;;;;;7.03;3.03;;;5.80;99.90;;;;;;6290017;22;20050;-88
2022/02/03 20:10:20;;;;;;;7.77;3.50;;;5.70;99.90;;;;;;6288325;22;20080;-87
2022/02/03 20:12:47;;;;;;;7.73;3.33;;;5.80;99.90;;;;;;6277465;22;20084;-87
2022/02/03 20:15:18;;;;;;;7.87;3.47;;;5.70;99.90;;;;;;6276925;22;20004;-88
2022/02/03 20:17:43;;;;;;;8.27;3.27;;;5.80;99.90;;;;;;6277313;22;20293;-87
2022/02/03 20:20:13;;;;;;;6.63;2.97;;;5.60;99.90;;;;;;6275575;22;19995;-87
2022/02/03 20:22:39;;;;;;;7.60;3.37;;;5.70;99.90;;;;;;6276219;22;20004;-88
2022/02/03 20:25:07;;;;;;;5.87;2.97;;;5.70;99.90;;;;;;6276456;22;20004;-88
2022/02/03 20:27:33;;;;;;;6.17;2.70;;;5.60;99.90;;;;;;6276782;22;20003;-89
2022/02/03 20:30:00;;;;;;;5.30;2.43;;;5.60;99.90;;;;;;6250259;22;20373;-88
2022/02/03 20:32:29;;;;;;;5.93;2.90;;;5.70;99.90;;;;;;6276860;22;20015;-88
2022/02/03 20:35:00;;;;;;;5.60;2.67;;;5.80;99.90;;;;;;6276678;22;20014;-89
2022/02/03 20:37:26;;;;;;;9.60;2.80;;;5.60;99.90;;;;;;6276389;22;20438;-88
2022/02/03 20:40:16;;;;;;;5.07;2.40;;;5.60;99.90;;;;;;6277758;22;20004;-88
2022/02/03 20:43:05;;;;;;;5.30;2.67;;;5.60;99.90;;;;;;6278825;22;20002;-88
2022/02/03 20:45:30;;;;;;;5.93;2.80;;;5.70;99.90;;;;;;6249903;22;20008;-89
2022/02/03 20:48:06;;;;;;;7.23;3.07;;;5.60;99.90;;;;;;6276890;22;20109;-88
2022/02/03 20:50:51;;;;;;;5.80;2.90;;;5.60;99.90;;;;;;6250137;22;20434;-88
2022/02/03 20:53:17;;;;;;;4.70;2.37;;;5.60;99.90;;;;;;6276402;22;20065;-89
2022/02/03 20:56:02;;;;;;;3.93;2.30;;;5.60;99.90;;;;;;6275893;22;20007;-89
2022/02/03 20:58:28;;;;;;;7.30;2.90;;;5.60;99.90;;;;;;6276794;22;20003;-88
2022/02/03 21:01:07;;;;;;;5.37;2.33;;;5.60;99.90;;;;;;6276093;22;20014;-89
2022/02/03 21:03:42;;;;;;;5.93;2.70;;;5.50;99.90;;;;;;6278054;22;20430;-88
2022/02/03 21:06:12;;;;;;;5.50;2.73;;;5.50;99.90;;;;;;6276009;22;20080;-88
2022/02/03 21:08:54;;;;;;;6.07;2.73;;;5.50;99.90;;;;;;6275647;22;20073;-88
2022/02/03 21:11:35;;;;;;;5.75;2.72;;;5.60;99.90;;;;;;6277543;22;20000;-88
2022/02/03 21:14:21;;;;;;;6.43;2.50;;;5.60;99.90;;;;;;6276829;22;20004;-88
2022/02/03 21:16:56;;;;;;;6.50;3.03;;;5.60;99.90;;;;;;6276550;22;20011;-89
2022/02/03 21:19:22;;;;;;;7.03;3.27;;;5.60;99.90;;;;;;6276721;22;20022;-88
2022/02/03 21:21:50;;;;;;;6.87;3.53;;;5.60;99.90;;;;;;6276367;22;20379;-89
2022/02/03 21:24:18;;;;;;;7.37;3.10;;;5.60;99.90;;;;;;6277852;22;19999;-89
2022/02/03 21:27:16;;;;;;;7.00;3.63;;;5.60;99.90;;;;;;6277128;22;20476;-89
2022/02/03 21:29:43;;;;;;;9.37;3.70;;;5.60;99.90;;;;;;6277855;22;20444;-89
2022/02/03 21:32:11;;;;;;;6.40;3.40;;;5.60;99.90;;;;;;6275670;22;20011;-89
2022/02/03 21:34:41;;;;;;;8.10;3.80;;;5.60;99.90;;;;;;6274954;22;20438;-88
2022/02/03 21:37:15;;;;;;;7.10;3.50;;;5.50;99.90;;;;;;6277289;22;20031;-88
2022/02/03 21:42:43;;;;;;;7.03;3.77;;;5.50;99.90;;;;;;6277211;22;20026;-88
2022/02/03 21:45:31;;;;;;;8.43;3.93;;;5.50;99.90;;;;;;6251997;22;20007;-88
2022/02/03 21:48:22;;;;;;;6.30;3.37;;;5.50;99.90;;;;;;6279004;22;20030;-88
2022/02/03 21:54:15;;;;;;;6.90;3.33;;;5.50;99.90;;;;;;6252410;22;20456;-88
2022/02/03 21:56:42;;;;;;;8.30;3.87;;;5.40;99.90;;;;;;6278184;22;20011;-88
2022/02/03 21:59:21;;;;;;;7.63;3.40;;;5.50;99.90;;;;;;6277179;22;20039;-87
2022/02/03 22:01:54;;;;;;;7.40;3.60;;;5.40;99.90;;;;;;6278648;22;20008;-88
2022/02/03 22:04:29;;;;;;;7.47;3.03;;;5.30;99.90;;;;;;6277534;22;20095;-88
2022/02/03 22:07:05;;;;;;;;;;;;;;;;;;;;;
2022/02/03 22:09:39;;;;;;;7.33;3.60;;;5.30;99.90;;;;;;6277945;22;20099;-88
2022/02/03 22:12:26;;;;;;;6.77;3.37;;;5.30;99.90;;;;;;6276381;22;20383;-88
2022/02/03 22:14:54;;;;;;;8.27;3.83;;;5.20;99.90;;;;;;6276976;22;20012;-89
2022/02/03 22:17:54;;;;;;;8.13;3.60;;;5.20;99.90;;;;;;6275977;22;20327;-88
2022/02/03 22:20:43;;;;;;;6.60;3.43;;;5.20;99.90;;;;;;6276524;22;20487;-89
2022/02/03 22:23:35;;;;;;;5.63;3.13;;;5.20;99.90;;;;;;6276848;22;19999;-89
2022/02/03 22:26:41;;;;;;;8.75;3.78;;;5.10;99.90;;;;;;6276377;22;20079;-89
2022/02/03 22:46:54;;;;;;;8.50;3.87;;;4.90;99.90;;;;;;6288148;22;20425;-89
2022/02/03 22:48:47;;;;;;;5.43;2.77;;;4.80;99.90;;;;;;6261696;22;20011;-89
2022/02/03 22:51:34;;;;;;;8.43;4.00;;;4.90;99.90;;;;;;6272008;22;20004;-88
2022/02/03 22:54:06;;;;;;;7.47;3.63;;;4.90;99.90;;;;;;6277881;22;20029;-89
2022/02/03 22:56:40;;;;;;;9.68;3.72;;;4.80;99.90;;;;;;6275512;22;20010;-89
2022/02/03 23:01:58;;;;;;;7.77;3.50;;;4.80;99.90;;;;;;6277485;22;20026;-88
2022/02/03 23:04:26;;;;;;;7.60;3.53;;;4.80;99.90;;;;;;6275308;22;20426;-89
2022/02/03 23:07:13;;;;;;;9.97;3.83;;;4.80;99.90;;;;;;6275373;22;20268;-88
2022/02/03 23:12:57;;;;;;;7.77;3.57;;;4.80;99.90;;;;;;6278758;22;20494;-89
2022/02/03 23:24:33;;;;;;;6.93;3.77;;;4.70;99.90;;;;;;6271893;22;20000;-88
2022/02/03 23:27:18;;;;;;;9.83;3.90;;;4.60;99.90;;;;;;6275838;22;20004;-89
2022/02/03 23:29:58;;;;;;;7.80;3.63;;;4.70;99.90;;;;;;6276619;22;20492;-89
2022/02/03 23:32:25;;;;;;;8.70;4.33;;;4.60;99.90;;;;;;6277353;22;19995;-89
2022/02/03 23:35:11;;;;;;;9.17;3.87;;;4.60;99.90;;;;;;6276860;22;20027;-88
2022/02/03 23:37:40;;;;;;;6.20;3.23;;;4.60;99.90;;;;;;6275919;22;20020;-89
